sensor_id;sensor_type;location;lat;lon;timestamp;P1;durP1;ratioP1;P2;durP2;ratioP2
12745;SDS011;6437;53.686;10.030;2023-03-01T00:02:57;20.02;;;8.90;;
12745;SDS011;6437;53.686;10.030;2023-03-01T00:05:59;20.90;;;8.30;;
12745;SDS011;6437;53.686;10.030;2023-03-01T00:09:01;22.08;;;9.18;;
12745;SDS011;6437;53.686;10.030;2023-03-01T00:12:04;21.60;;;7.28;;
12745;SDS011;6437;53.686;10.030;2023-03-01T00:15:07;17.50;;;7.88;;
12745;SDS011;6437;53.686;10.030;2023-03-01T00:18:09;18.58;;;6.95;;
12745;SDS011;6437;53.686;10.030;2023-03-01T00:21:11;16.45;;;7.15;;
12745;SDS011;6437;53.686;10.030;2023-03-01T00:24:13;15.75;;;5.55;;
12745;SDS011;6437;53.686;10.030;2023-03-01T00:27:17;15.27;;;6.15;;
12745;SDS011;6437;53.686;10.030;2023-03-01T00:30:18;32.42;;;8.68;;
12745;SDS011;6437;53.686;10.030;2023-03-01T00:33:20;19.10;;;7.82;;
12745;SDS011;6437;53.686;10.030;2023-03-01T00:36:23;24.40;;;10.20;;
12745;SDS011;6437;53.686;10.030;2023-03-01T00:39:26;27.33;;;9.70;;
12745;SDS011;6437;53.686;10.030;2023-03-01T00:42:29;20.67;;;9.63;;
12745;SDS011;6437;53.686;10.030;2023-03-01T00:45:31;25.75;;;12.68;;
12745;SDS011;6437;53.686;10.030;2023-03-01T00:48:34;21.38;;;10.43;;
12745;SDS011;6437;53.686;10.030;2023-03-01T00:51:36;21.50;;;9.57;;
12745;SDS011;6437;53.686;10.030;2023-03-01T00:54:39;22.57;;;11.77;;
12745;SDS011;6437;53.686;10.030;2023-03-01T00:57:42;29.88;;;10.88;;
12745;SDS011;6437;53.686;10.030;2023-03-01T01:03:46;20.23;;;9.93;;
12745;SDS011;6437;53.686;10.030;2023-03-01T01:09:51;22.13;;;9.30;;
12745;SDS011;6437;53.686;10.030;2023-03-01T01:12:54;25.00;;;8.00;;
12745;SDS011;6437;53.686;10.030;2023-03-01T01:15:59;19.35;;;8.15;;
12745;SDS011;6437;53.686;10.030;2023-03-01T01:19:01;24.33;;;9.77;;
12745;SDS011;6437;53.686;10.030;2023-03-01T01:22:03;18.90;;;8.13;;
12745;SDS011;6437;53.686;10.030;2023-03-01T01:25:05;19.30;;;8.52;;
12745;SDS011;6437;53.686;10.030;2023-03-01T01:28:09;18.45;;;8.07;;
12745;SDS011;6437;53.686;10.030;2023-03-01T01:31:11;14.27;;;6.20;;
12745;SDS011;6437;53.686;10.030;2023-03-01T01:34:14;13.10;;;6.00;;
12745;SDS011;6437;53.686;10.030;2023-03-01T01:37:16;12.40;;;5.07;;
12745;SDS011;6437;53.686;10.030;2023-03-01T01:40:18;18.45;;;6.75;;
12745;SDS011;6437;53.686;10.030;2023-03-01T01:43:22;18.20;;;7.28;;
12745;SDS011;6437;53.686;10.030;2023-03-01T01:46:27;22.10;;;8.70;;
12745;SDS011;6437;53.686;10.030;2023-03-01T01:49:32;26.63;;;9.38;;
12745;SDS011;6437;53.686;10.030;2023-03-01T01:52:38;24.58;;;10.60;;
12745;SDS011;6437;53.686;10.030;2023-03-01T01:55:40;19.50;;;7.85;;
12745;SDS011;6437;53.686;10.030;2023-03-01T01:58:45;15.05;;;6.60;;
12745;SDS011;6437;53.686;10.030;2023-03-01T02:01:48;19.65;;;7.88;;
12745;SDS011;6437;53.686;10.030;2023-03-01T02:04:51;20.13;;;7.97;;
12745;SDS011;6437;53.686;10.030;2023-03-01T02:08:03;19.42;;;8.60;;
12745;SDS011;6437;53.686;10.030;2023-03-01T02:11:05;28.60;;;8.27;;
12745;SDS011;6437;53.686;10.030;2023-03-01T02:14:09;21.80;;;8.63;;
12745;SDS011;6437;53.686;10.030;2023-03-01T02:17:11;18.45;;;7.25;;
12745;SDS011;6437;53.686;10.030;2023-03-01T02:20:16;20.98;;;8.40;;
12745;SDS011;6437;53.686;10.030;2023-03-01T02:23:24;19.23;;;6.50;;
12745;SDS011;6437;53.686;10.030;2023-03-01T02:26:29;20.10;;;7.22;;
12745;SDS011;6437;53.686;10.030;2023-03-01T02:29:38;21.33;;;7.65;;
12745;SDS011;6437;53.686;10.030;2023-03-01T02:32:40;23.88;;;7.95;;
12745;SDS011;6437;53.686;10.030;2023-03-01T02:35:43;14.38;;;6.00;;
12745;SDS011;6437;53.686;10.030;2023-03-01T02:38:45;21.83;;;8.57;;
12745;SDS011;6437;53.686;10.030;2023-03-01T02:41:48;21.55;;;6.95;;
12745;SDS011;6437;53.686;10.030;2023-03-01T02:44:54;18.10;;;7.53;;
12745;SDS011;6437;53.686;10.030;2023-03-01T02:47:56;29.65;;;7.72;;
12745;SDS011;6437;53.686;10.030;2023-03-01T02:51:03;18.42;;;6.30;;
12745;SDS011;6437;53.686;10.030;2023-03-01T02:54:15;17.65;;;7.43;;
12745;SDS011;6437;53.686;10.030;2023-03-01T02:57:24;17.92;;;6.75;;
12745;SDS011;6437;53.686;10.030;2023-03-01T03:00:30;19.38;;;8.23;;
12745;SDS011;6437;53.686;10.030;2023-03-01T03:03:39;20.83;;;7.03;;
12745;SDS011;6437;53.686;10.030;2023-03-01T03:06:41;18.73;;;6.47;;
12745;SDS011;6437;53.686;10.030;2023-03-01T03:09:43;24.85;;;9.88;;
12745;SDS011;6437;53.686;10.030;2023-03-01T03:12:48;16.85;;;8.10;;
12745;SDS011;6437;53.686;10.030;2023-03-01T03:15:52;20.50;;;6.72;;
12745;SDS011;6437;53.686;10.030;2023-03-01T03:18:53;17.00;;;7.13;;
12745;SDS011;6437;53.686;10.030;2023-03-01T03:22:04;15.93;;;6.40;;
12745;SDS011;6437;53.686;10.030;2023-03-01T03:25:09;18.67;;;6.45;;
12745;SDS011;6437;53.686;10.030;2023-03-01T03:28:11;16.02;;;6.53;;
12745;SDS011;6437;53.686;10.030;2023-03-01T03:31:15;14.55;;;6.30;;
12745;SDS011;6437;53.686;10.030;2023-03-01T03:34:16;18.92;;;5.82;;
12745;SDS011;6437;53.686;10.030;2023-03-01T03:37:18;18.65;;;7.30;;
12745;SDS011;6437;53.686;10.030;2023-03-01T03:40:35;18.27;;;6.10;;
12745;SDS011;6437;53.686;10.030;2023-03-01T03:43:39;14.10;;;6.65;;
12745;SDS011;6437;53.686;10.030;2023-03-01T03:46:44;17.63;;;6.78;;
12745;SDS011;6437;53.686;10.030;2023-03-01T03:49:45;12.35;;;5.68;;
12745;SDS011;6437;53.686;10.030;2023-03-01T03:52:47;14.55;;;5.53;;
12745;SDS011;6437;53.686;10.030;2023-03-01T03:55:49;14.70;;;5.18;;
12745;SDS011;6437;53.686;10.030;2023-03-01T03:58:51;17.02;;;5.75;;
12745;SDS011;6437;53.686;10.030;2023-03-01T04:01:54;13.30;;;5.65;;
12745;SDS011;6437;53.686;10.030;2023-03-01T04:04:56;19.80;;;5.95;;
12745;SDS011;6437;53.686;10.030;2023-03-01T04:07:58;11.60;;;5.53;;
12745;SDS011;6437;53.686;10.030;2023-03-01T04:11:03;11.30;;;4.50;;
12745;SDS011;6437;53.686;10.030;2023-03-01T04:14:20;15.90;;;5.40;;
12745;SDS011;6437;53.686;10.030;2023-03-01T04:17:23;14.13;;;5.30;;
12745;SDS011;6437;53.686;10.030;2023-03-01T04:20:26;11.65;;;4.43;;
12745;SDS011;6437;53.686;10.030;2023-03-01T04:23:29;11.20;;;4.10;;
12745;SDS011;6437;53.686;10.030;2023-03-01T04:26:31;17.60;;;4.80;;
12745;SDS011;6437;53.686;10.030;2023-03-01T04:29:33;12.73;;;4.68;;
12745;SDS011;6437;53.686;10.030;2023-03-01T04:32:36;11.70;;;3.97;;
12745;SDS011;6437;53.686;10.030;2023-03-01T04:35:37;10.63;;;3.95;;
12745;SDS011;6437;53.686;10.030;2023-03-01T04:38:40;11.35;;;2.70;;
12745;SDS011;6437;53.686;10.030;2023-03-01T04:41:42;16.27;;;4.20;;
12745;SDS011;6437;53.686;10.030;2023-03-01T04:44:44;7.38;;;3.33;;
12745;SDS011;6437;53.686;10.030;2023-03-01T04:47:48;10.38;;;3.72;;
12745;SDS011;6437;53.686;10.030;2023-03-01T04:50:52;16.88;;;3.95;;
12745;SDS011;6437;53.686;10.030;2023-03-01T04:53:53;10.13;;;3.38;;
12745;SDS011;6437;53.686;10.030;2023-03-01T04:56:55;16.60;;;5.25;;
12745;SDS011;6437;53.686;10.030;2023-03-01T04:59:58;12.30;;;5.28;;
12745;SDS011;6437;53.686;10.030;2023-03-01T05:03:01;9.70;;;3.75;;
12745;SDS011;6437;53.686;10.030;2023-03-01T05:06:03;9.63;;;3.20;;
12745;SDS011;6437;53.686;10.030;2023-03-01T05:09:05;12.20;;;3.92;;
12745;SDS011;6437;53.686;10.030;2023-03-01T05:12:07;15.25;;;4.75;;
12745;SDS011;6437;53.686;10.030;2023-03-01T05:15:09;17.48;;;4.68;;
12745;SDS011;6437;53.686;10.030;2023-03-01T05:18:13;11.32;;;4.35;;
12745;SDS011;6437;53.686;10.030;2023-03-01T05:21:14;7.03;;;2.92;;
12745;SDS011;6437;53.686;10.030;2023-03-01T05:24:16;9.40;;;4.47;;
12745;SDS011;6437;53.686;10.030;2023-03-01T05:27:18;20.92;;;4.68;;
12745;SDS011;6437;53.686;10.030;2023-03-01T05:33:25;17.95;;;7.47;;
12745;SDS011;6437;53.686;10.030;2023-03-01T05:36:28;11.23;;;4.72;;
12745;SDS011;6437;53.686;10.030;2023-03-01T05:39:30;14.57;;;4.47;;
12745;SDS011;6437;53.686;10.030;2023-03-01T05:42:32;13.10;;;3.63;;
12745;SDS011;6437;53.686;10.030;2023-03-01T05:45:35;12.35;;;5.47;;
12745;SDS011;6437;53.686;10.030;2023-03-01T05:48:39;14.70;;;6.32;;
12745;SDS011;6437;53.686;10.030;2023-03-01T05:51:41;15.18;;;7.47;;
12745;SDS011;6437;53.686;10.030;2023-03-01T05:54:43;15.45;;;7.05;;
12745;SDS011;6437;53.686;10.030;2023-03-01T05:57:46;22.07;;;12.37;;
12745;SDS011;6437;53.686;10.030;2023-03-01T06:00:48;22.73;;;12.13;;
12745;SDS011;6437;53.686;10.030;2023-03-01T06:03:51;22.85;;;10.65;;
12745;SDS011;6437;53.686;10.030;2023-03-01T06:06:53;18.52;;;8.93;;
12745;SDS011;6437;53.686;10.030;2023-03-01T06:09:55;19.15;;;8.38;;
12745;SDS011;6437;53.686;10.030;2023-03-01T06:12:57;20.38;;;8.25;;
12745;SDS011;6437;53.686;10.030;2023-03-01T06:15:59;15.07;;;7.45;;
12745;SDS011;6437;53.686;10.030;2023-03-01T06:19:02;19.42;;;6.97;;
12745;SDS011;6437;53.686;10.030;2023-03-01T06:22:04;20.33;;;8.20;;
12745;SDS011;6437;53.686;10.030;2023-03-01T06:25:07;19.00;;;7.33;;
12745;SDS011;6437;53.686;10.030;2023-03-01T06:28:09;16.75;;;5.57;;
12745;SDS011;6437;53.686;10.030;2023-03-01T06:31:11;20.90;;;8.85;;
12745;SDS011;6437;53.686;10.030;2023-03-01T06:34:14;18.48;;;9.50;;
12745;SDS011;6437;53.686;10.030;2023-03-01T06:37:16;24.77;;;9.60;;
12745;SDS011;6437;53.686;10.030;2023-03-01T06:40:18;25.27;;;9.38;;
12745;SDS011;6437;53.686;10.030;2023-03-01T06:43:21;22.20;;;8.57;;
12745;SDS011;6437;53.686;10.030;2023-03-01T06:46:23;20.27;;;7.90;;
12745;SDS011;6437;53.686;10.030;2023-03-01T06:49:26;20.30;;;6.75;;
12745;SDS011;6437;53.686;10.030;2023-03-01T06:52:28;17.60;;;7.25;;
12745;SDS011;6437;53.686;10.030;2023-03-01T06:55:30;27.70;;;7.78;;
12745;SDS011;6437;53.686;10.030;2023-03-01T06:58:32;19.65;;;6.75;;
12745;SDS011;6437;53.686;10.030;2023-03-01T07:01:34;18.35;;;9.27;;
12745;SDS011;6437;53.686;10.030;2023-03-01T07:04:37;16.92;;;7.32;;
12745;SDS011;6437;53.686;10.030;2023-03-01T07:07:39;18.67;;;10.90;;
12745;SDS011;6437;53.686;10.030;2023-03-01T07:10:41;13.75;;;5.57;;
12745;SDS011;6437;53.686;10.030;2023-03-01T07:13:42;13.95;;;6.75;;
12745;SDS011;6437;53.686;10.030;2023-03-01T07:16:44;14.15;;;6.97;;
12745;SDS011;6437;53.686;10.030;2023-03-01T07:19:47;12.50;;;6.85;;
12745;SDS011;6437;53.686;10.030;2023-03-01T07:22:49;16.90;;;7.53;;
12745;SDS011;6437;53.686;10.030;2023-03-01T07:25:51;21.17;;;8.98;;
12745;SDS011;6437;53.686;10.030;2023-03-01T07:28:54;17.45;;;7.65;;
12745;SDS011;6437;53.686;10.030;2023-03-01T07:31:55;18.45;;;6.90;;
12745;SDS011;6437;53.686;10.030;2023-03-01T07:34:59;20.55;;;7.78;;
12745;SDS011;6437;53.686;10.030;2023-03-01T07:38:01;17.40;;;7.93;;
12745;SDS011;6437;53.686;10.030;2023-03-01T07:41:03;20.98;;;12.43;;
12745;SDS011;6437;53.686;10.030;2023-03-01T07:44:05;22.33;;;8.77;;
12745;SDS011;6437;53.686;10.030;2023-03-01T07:47:07;20.88;;;7.93;;
12745;SDS011;6437;53.686;10.030;2023-03-01T07:50:11;17.73;;;7.32;;
12745;SDS011;6437;53.686;10.030;2023-03-01T07:53:13;21.02;;;9.75;;
12745;SDS011;6437;53.686;10.030;2023-03-01T07:56:15;20.25;;;10.18;;
12745;SDS011;6437;53.686;10.030;2023-03-01T07:59:18;19.35;;;8.40;;
12745;SDS011;6437;53.686;10.030;2023-03-01T08:02:20;21.70;;;10.40;;
12745;SDS011;6437;53.686;10.030;2023-03-01T08:05:23;19.42;;;9.23;;
12745;SDS011;6437;53.686;10.030;2023-03-01T08:08:25;25.42;;;9.25;;
12745;SDS011;6437;53.686;10.030;2023-03-01T08:11:27;20.98;;;9.07;;
12745;SDS011;6437;53.686;10.030;2023-03-01T08:14:29;29.88;;;9.40;;
12745;SDS011;6437;53.686;10.030;2023-03-01T08:17:30;17.67;;;9.60;;
12745;SDS011;6437;53.686;10.030;2023-03-01T08:20:33;26.50;;;11.02;;
12745;SDS011;6437;53.686;10.030;2023-03-01T08:23:35;29.50;;;13.73;;
12745;SDS011;6437;53.686;10.030;2023-03-01T08:26:37;29.15;;;10.07;;
12745;SDS011;6437;53.686;10.030;2023-03-01T08:29:39;22.30;;;9.70;;
12745;SDS011;6437;53.686;10.030;2023-03-01T08:32:40;18.55;;;9.63;;
12745;SDS011;6437;53.686;10.030;2023-03-01T08:35:43;20.33;;;10.15;;
12745;SDS011;6437;53.686;10.030;2023-03-01T08:38:45;25.83;;;11.60;;
12745;SDS011;6437;53.686;10.030;2023-03-01T08:41:47;25.60;;;11.25;;
12745;SDS011;6437;53.686;10.030;2023-03-01T08:44:49;19.10;;;11.45;;
12745;SDS011;6437;53.686;10.030;2023-03-01T08:47:51;24.40;;;11.88;;
12745;SDS011;6437;53.686;10.030;2023-03-01T08:50:55;20.83;;;11.00;;
12745;SDS011;6437;53.686;10.030;2023-03-01T08:53:57;20.55;;;11.40;;
12745;SDS011;6437;53.686;10.030;2023-03-01T08:57:00;19.60;;;9.90;;
12745;SDS011;6437;53.686;10.030;2023-03-01T09:00:03;26.05;;;13.00;;
12745;SDS011;6437;53.686;10.030;2023-03-01T09:03:08;22.58;;;12.25;;
12745;SDS011;6437;53.686;10.030;2023-03-01T09:06:11;24.85;;;12.40;;
12745;SDS011;6437;53.686;10.030;2023-03-01T09:09:14;22.50;;;12.75;;
12745;SDS011;6437;53.686;10.030;2023-03-01T09:12:17;21.63;;;12.65;;
12745;SDS011;6437;53.686;10.030;2023-03-01T09:15:19;21.10;;;11.27;;
12745;SDS011;6437;53.686;10.030;2023-03-01T09:18:21;24.08;;;12.07;;
12745;SDS011;6437;53.686;10.030;2023-03-01T09:21:24;19.55;;;11.30;;
12745;SDS011;6437;53.686;10.030;2023-03-01T09:24:26;21.25;;;12.68;;
12745;SDS011;6437;53.686;10.030;2023-03-01T09:27:27;24.75;;;12.50;;
12745;SDS011;6437;53.686;10.030;2023-03-01T09:30:29;19.42;;;12.13;;
12745;SDS011;6437;53.686;10.030;2023-03-01T09:33:31;19.75;;;11.05;;
12745;SDS011;6437;53.686;10.030;2023-03-01T09:36:35;24.70;;;11.00;;
12745;SDS011;6437;53.686;10.030;2023-03-01T09:39:37;21.02;;;13.05;;
12745;SDS011;6437;53.686;10.030;2023-03-01T09:42:44;33.00;;;14.32;;
12745;SDS011;6437;53.686;10.030;2023-03-01T09:45:48;24.80;;;11.88;;
12745;SDS011;6437;53.686;10.030;2023-03-01T09:48:55;18.55;;;10.57;;
12745;SDS011;6437;53.686;10.030;2023-03-01T09:52:09;19.48;;;10.35;;
12745;SDS011;6437;53.686;10.030;2023-03-01T09:55:24;22.45;;;10.98;;
12745;SDS011;6437;53.686;10.030;2023-03-01T09:58:34;23.58;;;12.85;;
12745;SDS011;6437;53.686;10.030;2023-03-01T10:01:48;24.67;;;11.75;;
12745;SDS011;6437;53.686;10.030;2023-03-01T10:05:01;19.17;;;11.10;;
12745;SDS011;6437;53.686;10.030;2023-03-01T10:11:39;22.55;;;12.30;;
12745;SDS011;6437;53.686;10.030;2023-03-01T10:14:48;20.10;;;10.32;;
12745;SDS011;6437;53.686;10.030;2023-03-01T10:17:55;20.58;;;11.45;;
12745;SDS011;6437;53.686;10.030;2023-03-01T10:21:07;15.80;;;9.15;;
12745;SDS011;6437;53.686;10.030;2023-03-01T10:24:16;15.10;;;9.35;;
12745;SDS011;6437;53.686;10.030;2023-03-01T10:27:22;18.17;;;8.25;;
12745;SDS011;6437;53.686;10.030;2023-03-01T10:30:29;18.00;;;8.70;;
12745;SDS011;6437;53.686;10.030;2023-03-01T10:33:37;14.43;;;8.82;;
12745;SDS011;6437;53.686;10.030;2023-03-01T10:36:40;23.58;;;9.55;;
12745;SDS011;6437;53.686;10.030;2023-03-01T10:39:58;24.00;;;10.18;;
12745;SDS011;6437;53.686;10.030;2023-03-01T10:43:05;17.17;;;10.50;;
12745;SDS011;6437;53.686;10.030;2023-03-01T10:46:15;16.00;;;9.00;;
12745;SDS011;6437;53.686;10.030;2023-03-01T10:49:24;17.33;;;9.05;;
12745;SDS011;6437;53.686;10.030;2023-03-01T10:52:27;21.10;;;10.10;;
12745;SDS011;6437;53.686;10.030;2023-03-01T10:55:33;17.10;;;9.85;;
12745;SDS011;6437;53.686;10.030;2023-03-01T10:58:37;22.85;;;10.40;;
12745;SDS011;6437;53.686;10.030;2023-03-01T11:01:40;22.30;;;9.07;;
12745;SDS011;6437;53.686;10.030;2023-03-01T11:04:55;20.40;;;10.93;;
12745;SDS011;6437;53.686;10.030;2023-03-01T11:07:59;15.25;;;8.52;;
12745;SDS011;6437;53.686;10.030;2023-03-01T11:11:06;17.30;;;10.10;;
12745;SDS011;6437;53.686;10.030;2023-03-01T11:14:18;21.30;;;9.57;;
12745;SDS011;6437;53.686;10.030;2023-03-01T11:17:23;16.75;;;9.10;;
12745;SDS011;6437;53.686;10.030;2023-03-01T11:20:29;13.15;;;7.70;;
12745;SDS011;6437;53.686;10.030;2023-03-01T11:23:39;14.70;;;9.43;;
12745;SDS011;6437;53.686;10.030;2023-03-01T11:26:44;20.17;;;9.50;;
12745;SDS011;6437;53.686;10.030;2023-03-01T11:29:52;16.88;;;7.75;;
12745;SDS011;6437;53.686;10.030;2023-03-01T11:33:02;14.35;;;8.05;;
12745;SDS011;6437;53.686;10.030;2023-03-01T11:36:15;14.63;;;7.22;;
12745;SDS011;6437;53.686;10.030;2023-03-01T11:39:27;16.92;;;6.65;;
12745;SDS011;6437;53.686;10.030;2023-03-01T11:42:40;13.20;;;6.55;;
12745;SDS011;6437;53.686;10.030;2023-03-01T11:45:55;13.85;;;6.80;;
12745;SDS011;6437;53.686;10.030;2023-03-01T11:49:24;12.23;;;6.28;;
12745;SDS011;6437;53.686;10.030;2023-03-01T11:52:46;10.68;;;6.03;;
12745;SDS011;6437;53.686;10.030;2023-03-01T11:55:58;11.00;;;5.03;;
12745;SDS011;6437;53.686;10.030;2023-03-01T11:59:16;12.45;;;5.47;;
12745;SDS011;6437;53.686;10.030;2023-03-01T12:06:04;16.55;;;8.32;;
12745;SDS011;6437;53.686;10.030;2023-03-01T12:09:32;9.88;;;5.90;;
12745;SDS011;6437;53.686;10.030;2023-03-01T12:12:45;13.55;;;6.28;;
12745;SDS011;6437;53.686;10.030;2023-03-01T12:16:02;9.88;;;6.30;;
12745;SDS011;6437;53.686;10.030;2023-03-01T12:19:26;9.63;;;5.82;;
12745;SDS011;6437;53.686;10.030;2023-03-01T12:22:39;9.85;;;6.22;;
12745;SDS011;6437;53.686;10.030;2023-03-01T12:25:48;9.98;;;4.88;;
12745;SDS011;6437;53.686;10.030;2023-03-01T12:29:09;13.98;;;6.30;;
12745;SDS011;6437;53.686;10.030;2023-03-01T12:32:27;11.15;;;6.93;;
12745;SDS011;6437;53.686;10.030;2023-03-01T12:39:32;11.75;;;5.03;;
12745;SDS011;6437;53.686;10.030;2023-03-01T12:42:46;9.02;;;5.40;;
12745;SDS011;6437;53.686;10.030;2023-03-01T12:46:06;9.40;;;5.43;;
12745;SDS011;6437;53.686;10.030;2023-03-01T12:49:21;9.25;;;4.70;;
12745;SDS011;6437;53.686;10.030;2023-03-01T12:52:31;8.70;;;5.68;;
12745;SDS011;6437;53.686;10.030;2023-03-01T12:55:38;12.38;;;6.05;;
12745;SDS011;6437;53.686;10.030;2023-03-01T12:58:45;10.20;;;5.53;;
12745;SDS011;6437;53.686;10.030;2023-03-01T13:01:53;9.68;;;5.38;;
12745;SDS011;6437;53.686;10.030;2023-03-01T13:05:13;12.73;;;4.25;;
12745;SDS011;6437;53.686;10.030;2023-03-01T13:08:31;4.90;;;3.83;;
12745;SDS011;6437;53.686;10.030;2023-03-01T13:11:40;6.10;;;3.80;;
12745;SDS011;6437;53.686;10.030;2023-03-01T13:14:44;8.00;;;4.80;;
12745;SDS011;6437;53.686;10.030;2023-03-01T13:17:47;8.63;;;4.10;;
12745;SDS011;6437;53.686;10.030;2023-03-01T13:20:52;12.80;;;3.97;;
12745;SDS011;6437;53.686;10.030;2023-03-01T13:23:57;6.85;;;3.58;;
12745;SDS011;6437;53.686;10.030;2023-03-01T13:27:19;7.43;;;4.43;;
12745;SDS011;6437;53.686;10.030;2023-03-01T13:30:39;7.70;;;4.07;;
12745;SDS011;6437;53.686;10.030;2023-03-01T13:33:43;8.35;;;4.13;;
12745;SDS011;6437;53.686;10.030;2023-03-01T13:36:47;4.03;;;3.35;;
12745;SDS011;6437;53.686;10.030;2023-03-01T13:39:50;9.50;;;4.18;;
12745;SDS011;6437;53.686;10.030;2023-03-01T13:42:52;5.25;;;3.60;;
12745;SDS011;6437;53.686;10.030;2023-03-01T13:45:54;6.80;;;3.93;;
12745;SDS011;6437;53.686;10.030;2023-03-01T13:48:56;7.85;;;4.47;;
12745;SDS011;6437;53.686;10.030;2023-03-01T13:51:59;6.55;;;4.85;;
12745;SDS011;6437;53.686;10.030;2023-03-01T13:55:04;6.40;;;3.88;;
12745;SDS011;6437;53.686;10.030;2023-03-01T13:58:21;6.90;;;4.78;;
12745;SDS011;6437;53.686;10.030;2023-03-01T14:01:27;6.03;;;3.80;;
12745;SDS011;6437;53.686;10.030;2023-03-01T14:04:31;14.30;;;5.20;;
12745;SDS011;6437;53.686;10.030;2023-03-01T14:07:37;8.05;;;4.45;;
12745;SDS011;6437;53.686;10.030;2023-03-01T14:10:43;10.18;;;5.00;;
12745;SDS011;6437;53.686;10.030;2023-03-01T14:14:01;10.00;;;5.30;;
12745;SDS011;6437;53.686;10.030;2023-03-01T14:17:27;9.10;;;5.45;;
12745;SDS011;6437;53.686;10.030;2023-03-01T14:20:43;12.10;;;4.38;;
12745;SDS011;6437;53.686;10.030;2023-03-01T14:23:52;8.15;;;4.10;;
12745;SDS011;6437;53.686;10.030;2023-03-01T14:29:56;8.98;;;5.07;;
12745;SDS011;6437;53.686;10.030;2023-03-01T14:33:01;8.90;;;4.88;;
12745;SDS011;6437;53.686;10.030;2023-03-01T14:36:06;13.10;;;5.57;;
12745;SDS011;6437;53.686;10.030;2023-03-01T14:39:17;14.38;;;4.50;;
12745;SDS011;6437;53.686;10.030;2023-03-01T14:42:21;5.13;;;3.63;;
12745;SDS011;6437;53.686;10.030;2023-03-01T14:45:25;7.53;;;4.00;;
12745;SDS011;6437;53.686;10.030;2023-03-01T14:48:28;7.32;;;3.58;;
12745;SDS011;6437;53.686;10.030;2023-03-01T14:51:34;7.88;;;3.20;;
12745;SDS011;6437;53.686;10.030;2023-03-01T14:54:42;7.97;;;3.10;;
12745;SDS011;6437;53.686;10.030;2023-03-01T14:57:48;9.32;;;4.22;;
12745;SDS011;6437;53.686;10.030;2023-03-01T15:00:51;6.55;;;3.58;;
12745;SDS011;6437;53.686;10.030;2023-03-01T15:03:54;6.50;;;3.38;;
12745;SDS011;6437;53.686;10.030;2023-03-01T15:06:56;6.13;;;3.10;;
12745;SDS011;6437;53.686;10.030;2023-03-01T15:10:07;6.07;;;2.95;;
12745;SDS011;6437;53.686;10.030;2023-03-01T15:13:21;13.65;;;4.75;;
12745;SDS011;6437;53.686;10.030;2023-03-01T15:16:25;9.25;;;4.90;;
12745;SDS011;6437;53.686;10.030;2023-03-01T15:19:29;10.00;;;4.78;;
12745;SDS011;6437;53.686;10.030;2023-03-01T15:22:30;7.50;;;4.82;;
12745;SDS011;6437;53.686;10.030;2023-03-01T15:25:34;6.43;;;3.63;;
12745;SDS011;6437;53.686;10.030;2023-03-01T15:28:40;8.50;;;5.07;;
12745;SDS011;6437;53.686;10.030;2023-03-01T15:31:57;12.80;;;6.57;;
12745;SDS011;6437;53.686;10.030;2023-03-01T15:35:00;8.48;;;5.45;;
12745;SDS011;6437;53.686;10.030;2023-03-01T15:38:23;9.85;;;5.75;;
12745;SDS011;6437;53.686;10.030;2023-03-01T15:41:37;11.57;;;6.10;;
12745;SDS011;6437;53.686;10.030;2023-03-01T15:44:48;21.67;;;6.65;;
12745;SDS011;6437;53.686;10.030;2023-03-01T15:47:50;10.00;;;6.25;;
12745;SDS011;6437;53.686;10.030;2023-03-01T15:50:54;12.43;;;6.28;;
12745;SDS011;6437;53.686;10.030;2023-03-01T15:53:58;15.75;;;7.10;;
12745;SDS011;6437;53.686;10.030;2023-03-01T15:57:03;13.60;;;6.35;;
12745;SDS011;6437;53.686;10.030;2023-03-01T16:00:06;9.80;;;6.63;;
12745;SDS011;6437;53.686;10.030;2023-03-01T16:03:11;17.50;;;6.97;;
12745;SDS011;6437;53.686;10.030;2023-03-01T16:06:13;9.60;;;5.68;;
12745;SDS011;6437;53.686;10.030;2023-03-01T16:09:15;12.43;;;5.70;;
12745;SDS011;6437;53.686;10.030;2023-03-01T16:12:18;11.27;;;6.93;;
12745;SDS011;6437;53.686;10.030;2023-03-01T16:15:22;10.80;;;6.35;;
12745;SDS011;6437;53.686;10.030;2023-03-01T16:18:28;9.63;;;6.82;;
12745;SDS011;6437;53.686;10.030;2023-03-01T16:21:30;10.18;;;6.85;;
12745;SDS011;6437;53.686;10.030;2023-03-01T16:24:32;11.88;;;6.95;;
12745;SDS011;6437;53.686;10.030;2023-03-01T16:27:37;10.40;;;7.70;;
12745;SDS011;6437;53.686;10.030;2023-03-01T16:33:40;8.73;;;5.63;;
12745;SDS011;6437;53.686;10.030;2023-03-01T16:36:44;14.85;;;5.75;;
12745;SDS011;6437;53.686;10.030;2023-03-01T16:39:46;11.75;;;7.22;;
12745;SDS011;6437;53.686;10.030;2023-03-01T16:42:51;15.32;;;5.47;;
12745;SDS011;6437;53.686;10.030;2023-03-01T16:45:53;11.65;;;6.60;;
12745;SDS011;6437;53.686;10.030;2023-03-01T16:48:55;13.43;;;5.60;;
12745;SDS011;6437;53.686;10.030;2023-03-01T16:51:57;13.75;;;7.03;;
12745;SDS011;6437;53.686;10.030;2023-03-01T16:54:59;14.18;;;6.20;;
12745;SDS011;6437;53.686;10.030;2023-03-01T16:58:04;12.88;;;7.82;;
12745;SDS011;6437;53.686;10.030;2023-03-01T17:01:07;12.00;;;7.75;;
12745;SDS011;6437;53.686;10.030;2023-03-01T17:04:11;11.98;;;7.38;;
12745;SDS011;6437;53.686;10.030;2023-03-01T17:07:13;12.63;;;7.43;;
12745;SDS011;6437;53.686;10.030;2023-03-01T17:10:15;12.15;;;7.32;;
12745;SDS011;6437;53.686;10.030;2023-03-01T17:13:18;10.25;;;6.50;;
12745;SDS011;6437;53.686;10.030;2023-03-01T17:16:20;11.95;;;4.60;;
12745;SDS011;6437;53.686;10.030;2023-03-01T17:19:22;9.48;;;5.00;;
12745;SDS011;6437;53.686;10.030;2023-03-01T17:22:24;12.75;;;6.43;;
12745;SDS011;6437;53.686;10.030;2023-03-01T17:25:26;7.50;;;5.15;;
12745;SDS011;6437;53.686;10.030;2023-03-01T17:28:29;11.07;;;7.00;;
12745;SDS011;6437;53.686;10.030;2023-03-01T17:31:32;15.73;;;8.35;;
12745;SDS011;6437;53.686;10.030;2023-03-01T17:34:34;14.43;;;9.10;;
12745;SDS011;6437;53.686;10.030;2023-03-01T17:37:36;15.05;;;9.55;;
12745;SDS011;6437;53.686;10.030;2023-03-01T17:40:39;18.02;;;10.43;;
12745;SDS011;6437;53.686;10.030;2023-03-01T17:43:43;13.35;;;9.52;;
12745;SDS011;6437;53.686;10.030;2023-03-01T17:46:45;22.63;;;11.05;;
12745;SDS011;6437;53.686;10.030;2023-03-01T17:49:47;19.25;;;11.20;;
12745;SDS011;6437;53.686;10.030;2023-03-01T17:52:48;22.77;;;11.55;;
12745;SDS011;6437;53.686;10.030;2023-03-01T17:55:57;19.58;;;12.60;;
12745;SDS011;6437;53.686;10.030;2023-03-01T17:59:02;15.95;;;10.75;;
12745;SDS011;6437;53.686;10.030;2023-03-01T18:02:04;15.35;;;9.90;;
12745;SDS011;6437;53.686;10.030;2023-03-01T18:05:06;14.20;;;9.82;;
12745;SDS011;6437;53.686;10.030;2023-03-01T18:08:08;20.30;;;12.53;;
12745;SDS011;6437;53.686;10.030;2023-03-01T18:11:10;17.60;;;12.05;;
12745;SDS011;6437;53.686;10.030;2023-03-01T18:14:14;14.95;;;10.00;;
12745;SDS011;6437;53.686;10.030;2023-03-01T18:17:16;14.90;;;9.98;;
12745;SDS011;6437;53.686;10.030;2023-03-01T18:20:17;23.08;;;11.95;;
12745;SDS011;6437;53.686;10.030;2023-03-01T18:23:19;18.30;;;10.93;;
12745;SDS011;6437;53.686;10.030;2023-03-01T18:26:21;54.38;;;32.97;;
12745;SDS011;6437;53.686;10.030;2023-03-01T18:29:25;18.53;;;12.23;;
12745;SDS011;6437;53.686;10.030;2023-03-01T18:32:27;21.38;;;10.93;;
12745;SDS011;6437;53.686;10.030;2023-03-01T18:35:29;17.25;;;11.43;;
12745;SDS011;6437;53.686;10.030;2023-03-01T18:38:31;16.25;;;11.30;;
12745;SDS011;6437;53.686;10.030;2023-03-01T18:41:33;17.83;;;12.30;;
12745;SDS011;6437;53.686;10.030;2023-03-01T18:44:37;19.25;;;11.63;;